This is the latest recevied weather packets stored in our database for station/object K9RCP-24. If no packets are shown the sender has not sent any weather packets the latest 10 day(s).
| Time | Temp. | Humidity | Pressure | Rain* | Wind** | Luminosity | Snow |
|---|---|---|---|---|---|---|---|
| 1777484981 | 14.44° C | 53% | 1028.1 hPa | 0 mm | - | - | - |
| 1777484698 | 13.89° C | 53% | 1027.8 hPa | 0 mm | - | - | - |
| 1777484449 | 13.89° C | 55% | 1028.1 hPa | 0 mm | - | - | - |
| 1777484010 | 13.89° C | 54% | 1028.1 hPa | 0 mm | - | - | - |
| 1777482931 | 13.33° C | 56% | 1028.1 hPa | 0 mm | - | - | - |
| 1777482175 | 13.33° C | 55% | 1028.1 hPa | 0 mm | - | - | - |
| 1777481927 | 12.78° C | 55% | 1028.1 hPa | 0 mm | - | - | - |
| 1777481801 | 13.33° C | 55% | 1028.4 hPa | 0 mm | - | - | - |
| 1777481553 | 12.78° C | 56% | 1028.4 hPa | 0 mm | - | - | - |
| 1777481429 | 12.78° C | 55% | 1028.4 hPa | 0 mm | - | - | - |
| 1777481055 | 12.78° C | 54% | 1028.4 hPa | 0 mm | - | - | - |
| 1777480062 | 12.22° C | 57% | 1028.4 hPa | 0 mm | - | - | - |
| 1777478194 | 11.11° C | 62% | 1028.8 hPa | 0 mm | - | - | - |
| 1777478069 | 10.56° C | 64% | 1028.8 hPa | 0 mm | - | - | - |
| 1777476415 | 8.89° C | 73% | 1028.8 hPa | 0 mm | - | - | - |
| 1777476291 | 8.89° C | 73% | 1028.8 hPa | 0 mm | - | - | - |
| 1777476042 | 8.89° C | 72% | 1028.8 hPa | 0 mm | - | - | - |
| 1777475916 | 8.89° C | 71% | 1028.8 hPa | 0 mm | - | - | - |
| 1777475616 | 8.89° C | 72% | 1028.8 hPa | 0 mm | - | - | - |
| 1777474831 | 8.89° C | 71% | 1028.8 hPa | 0 mm | - | - | - |
| 1777473590 | 8.89° C | 69% | 1029.1 hPa | 0 mm | - | - | - |
| 1777473219 | 8.33° C | 71% | 1029.1 hPa | 0 mm | - | - | - |
| 1777469730 | 4.44° C | 83% | 1028.8 hPa | 0 mm | - | - | - |
| 1777469479 | 4.44° C | 83% | 1028.8 hPa | 0 mm | - | - | - |
| 1777468230 | 3.89° C | 83% | 1028.8 hPa | 0 mm | - | - | - |
* Rain latest hour (hover to see other rain measurements)
** Current wind speed in m/s (hover to see current wind gust speed)